createdAt,value
2019-02-10T00:02:03.780Z,89.14
2019-02-10T00:04:32.881Z,89.67
2019-02-10T00:07:01.989Z,89.94
2019-02-10T00:09:31.057Z,90.27
2019-02-10T00:12:00.163Z,90.09
2019-02-10T00:14:29.238Z,89.96
2019-02-10T00:16:58.343Z,89.36
2019-02-10T00:19:27.419Z,89.09
2019-02-10T00:21:56.519Z,88.92
2019-02-10T00:24:25.627Z,89.54
2019-02-10T00:26:54.722Z,89.39
2019-02-10T00:29:23.813Z,89.18
2019-02-10T00:31:52.905Z,88.86
2019-02-10T00:34:21.985Z,88.48
2019-02-10T00:36:51.081Z,88.37
2019-02-10T00:39:20.153Z,88.20
2019-02-10T00:41:49.224Z,87.89
2019-02-10T00:44:18.335Z,88.21
2019-02-10T00:46:47.409Z,87.96
2019-02-10T00:49:16.506Z,88.42
2019-02-10T00:51:45.587Z,88.11
2019-02-10T00:54:14.680Z,88.22
2019-02-10T00:56:43.753Z,87.92
2019-02-10T00:59:12.859Z,88.01
2019-02-10T01:01:41.938Z,88.10
2019-02-10T01:04:11.072Z,88.24
2019-02-10T01:06:41.722Z,87.88
2019-02-10T01:09:10.910Z,87.87
2019-02-10T01:11:39.992Z,87.89
2019-02-10T01:14:09.102Z,87.95
2019-02-10T01:16:38.194Z,87.82
2019-02-10T01:19:13.216Z,87.76
2019-02-10T01:21:46.529Z,87.89
2019-02-10T01:24:15.632Z,87.85
2019-02-10T01:26:44.714Z,87.63
2019-02-10T01:29:13.865Z,87.06
2019-02-10T01:31:42.982Z,87.01
2019-02-10T01:34:12.053Z,87.19
2019-02-10T01:36:49.166Z,87.54
2019-02-10T01:39:19.776Z,87.95
2019-02-10T01:41:48.882Z,89.37
2019-02-10T01:44:18.243Z,90.02
2019-02-10T01:46:47.351Z,90.49
2019-02-10T01:49:16.432Z,90.69
2019-02-10T01:51:45.541Z,90.64
2019-02-10T01:54:14.627Z,90.59
2019-02-10T01:56:43.734Z,91.14
2019-02-10T01:59:12.809Z,91.12
2019-02-10T02:01:41.920Z,90.90
2019-02-10T02:04:11.037Z,90.64
2019-02-10T02:06:40.148Z,90.00
2019-02-10T02:09:12.282Z,89.79
2019-02-10T02:11:41.483Z,89.37
2019-02-10T02:14:10.558Z,88.92
2019-02-10T02:16:39.667Z,88.89
2019-02-10T02:19:08.750Z,88.26
2019-02-10T02:21:37.845Z,87.87
2019-02-10T02:24:06.931Z,87.69
2019-02-10T02:26:36.025Z,87.49
2019-02-10T02:29:05.118Z,87.80
2019-02-10T02:31:34.218Z,87.04
2019-02-10T02:34:03.308Z,87.78
2019-02-10T02:36:34.054Z,87.69
2019-02-10T02:39:04.307Z,87.20
2019-02-10T02:41:33.413Z,88.57
2019-02-10T02:44:02.498Z,88.13
2019-02-10T02:46:31.602Z,89.85
2019-02-10T02:49:00.679Z,90.30
2019-02-10T02:51:29.807Z,91.55
2019-02-10T02:53:58.864Z,92.38
2019-02-10T02:56:27.936Z,93.20
2019-02-10T02:58:57.036Z,93.94
2019-02-10T03:01:26.132Z,95.34
2019-02-10T03:03:55.247Z,95.30
2019-02-10T03:06:25.961Z,95.41
2019-02-10T03:08:55.067Z,96.19
2019-02-10T03:11:24.142Z,95.73
2019-02-10T03:13:53.243Z,96.78
2019-02-10T03:16:22.331Z,97.02
2019-02-10T03:18:53.222Z,96.96
2019-02-10T03:21:22.254Z,97.60
2019-02-10T03:23:51.345Z,98.11
2019-02-10T03:26:20.421Z,98.17
2019-02-10T03:28:49.513Z,98.39
2019-02-10T03:31:18.586Z,98.65
2019-02-10T03:33:47.707Z,99.42
2019-02-10T03:36:16.781Z,99.74
2019-02-10T03:38:45.894Z,99.89
2019-02-10T03:41:14.974Z,99.57
2019-02-10T03:43:44.084Z,99.71
2019-02-10T03:46:13.165Z,100.00
2019-02-10T03:48:42.269Z,100.00
2019-02-10T03:51:11.357Z,100.00
2019-02-10T03:53:40.455Z,100.00
2019-02-10T03:56:09.540Z,100.00
2019-02-10T03:58:38.638Z,100.00
2019-02-10T04:01:07.731Z,100.00
2019-02-10T04:03:36.861Z,100.00
2019-02-10T04:06:05.941Z,100.00
2019-02-10T04:08:35.045Z,100.00
2019-02-10T04:11:04.127Z,100.00
2019-02-10T04:13:33.236Z,100.00
2019-02-10T04:16:02.322Z,100.00
2019-02-10T04:18:31.423Z,100.00
2019-02-10T04:21:00.503Z,100.00
2019-02-10T04:23:29.611Z,100.00
2019-02-10T04:25:58.703Z,100.00
2019-02-10T04:28:27.806Z,100.00
2019-02-10T04:30:56.882Z,100.00
2019-02-10T04:33:25.983Z,100.00
2019-02-10T04:35:55.066Z,100.00
2019-02-10T04:38:24.180Z,100.00
2019-02-10T04:40:53.340Z,100.00
2019-02-10T04:43:22.415Z,100.00
2019-02-10T04:45:51.520Z,100.00
2019-02-10T04:48:20.596Z,100.00
2019-02-10T04:50:49.694Z,100.00
2019-02-10T04:53:18.795Z,100.00
2019-02-10T04:56:11.507Z,100.00
2019-02-10T04:58:40.591Z,100.00
2019-02-10T05:01:09.702Z,100.00
2019-02-10T05:03:39.293Z,100.00
2019-02-10T05:06:08.393Z,100.00
2019-02-10T05:08:37.472Z,100.00
2019-02-10T05:11:06.571Z,100.00
2019-02-10T05:13:35.662Z,100.00
2019-02-10T05:16:04.783Z,100.00
2019-02-10T05:18:33.838Z,100.00
2019-02-10T05:21:02.943Z,100.00
2019-02-10T05:23:32.036Z,100.00
2019-02-10T05:26:01.158Z,100.00
2019-02-10T05:28:30.201Z,100.00
2019-02-10T05:30:59.307Z,100.00
2019-02-10T05:33:28.384Z,100.00
2019-02-10T05:35:57.509Z,100.00
2019-02-10T05:38:26.592Z,100.00
2019-02-10T05:40:55.699Z,100.00
2019-02-10T05:43:24.774Z,100.00
2019-02-10T05:45:53.872Z,100.00
2019-02-10T05:48:22.947Z,100.00
2019-02-10T05:50:52.056Z,100.00
2019-02-10T05:53:21.143Z,100.00
2019-02-10T05:55:50.249Z,100.00
2019-02-10T05:58:19.321Z,100.00
2019-02-10T06:00:48.447Z,100.00
2019-02-10T06:03:17.560Z,100.00
2019-02-10T06:05:46.670Z,100.00
2019-02-10T06:08:15.749Z,100.00
2019-02-10T06:10:44.855Z,100.00
2019-02-10T06:13:13.929Z,100.00
2019-02-10T06:15:43.035Z,100.00
2019-02-10T06:18:12.110Z,100.00
2019-02-10T06:20:41.219Z,100.00
2019-02-10T06:23:10.298Z,100.00
2019-02-10T06:25:39.419Z,100.00
2019-02-10T06:28:08.487Z,100.00
2019-02-10T06:30:37.582Z,100.00
2019-02-10T06:33:06.667Z,100.00
2019-02-10T06:35:35.751Z,100.00
2019-02-10T06:38:04.855Z,100.00
2019-02-10T06:40:33.959Z,100.00
2019-02-10T06:43:03.038Z,100.00
2019-02-10T06:45:32.130Z,100.00
2019-02-10T06:48:01.237Z,100.00
2019-02-10T06:50:30.320Z,100.00
2019-02-10T06:52:59.418Z,100.00
2019-02-10T06:55:28.502Z,100.00
2019-02-10T06:57:57.613Z,100.00
2019-02-10T07:00:37.693Z,100.00
2019-02-10T07:03:39.099Z,99.31
2019-02-10T07:06:08.578Z,99.63
2019-02-10T07:08:37.693Z,100.00
2019-02-10T07:11:06.770Z,99.78
2019-02-10T07:13:40.875Z,99.99
2019-02-10T07:16:54.164Z,99.03
2019-02-10T07:20:12.302Z,98.67
2019-02-10T07:23:25.349Z,98.48
2019-02-10T07:25:56.217Z,99.22
2019-02-10T07:29:01.485Z,99.65
2019-02-10T07:31:33.858Z,99.90
2019-02-10T07:34:59.064Z,99.49
2019-02-10T07:37:45.707Z,98.87
2019-02-10T07:40:49.394Z,99.27
2019-02-10T07:44:02.367Z,100.00
2019-02-10T07:47:21.254Z,99.53
2019-02-10T07:50:17.703Z,98.25
2019-02-10T07:53:26.288Z,97.43
2019-02-10T07:56:26.262Z,97.31
2019-02-10T07:59:20.502Z,96.87
2019-02-10T08:02:42.619Z,96.69
2019-02-10T08:05:30.760Z,96.39
2019-02-10T08:08:37.157Z,96.13
2019-02-10T08:11:48.624Z,95.91
2019-02-10T08:14:48.458Z,95.34
2019-02-10T08:17:49.737Z,95.30
2019-02-10T08:20:49.898Z,95.35
2019-02-10T08:23:47.206Z,95.07
2019-02-10T08:27:27.223Z,95.35
2019-02-10T08:30:18.566Z,95.41
2019-02-10T08:33:12.513Z,96.22
2019-02-10T08:36:15.665Z,96.14
2019-02-10T08:39:18.096Z,96.60
2019-02-10T08:42:37.252Z,96.48
2019-02-10T08:45:25.584Z,96.69
2019-02-10T08:48:36.999Z,96.97
2019-02-10T08:51:42.686Z,96.52
2019-02-10T08:54:12.393Z,96.42
2019-02-10T08:56:41.475Z,97.67
2019-02-10T08:59:10.574Z,97.36
2019-02-10T09:01:39.673Z,97.88
2019-02-10T09:04:08.800Z,97.86
2019-02-10T09:06:37.879Z,97.53
2019-02-10T09:09:08.616Z,98.42
2019-02-10T09:11:37.768Z,98.46
2019-02-10T09:14:06.893Z,98.63
2019-02-10T09:16:35.972Z,98.25
2019-02-10T09:19:05.132Z,97.15
2019-02-10T09:21:34.211Z,97.03
2019-02-10T09:24:03.319Z,98.64
2019-02-10T09:26:32.401Z,97.91
2019-02-10T09:29:01.537Z,98.51
2019-02-10T09:31:30.623Z,96.90
2019-02-10T09:33:59.716Z,98.39
2019-02-10T09:36:28.802Z,97.46
2019-02-10T09:38:57.901Z,97.74
2019-02-10T09:41:26.984Z,98.07
2019-02-10T09:43:56.098Z,97.66
2019-02-10T09:46:25.310Z,96.94
2019-02-10T09:48:54.453Z,96.60
2019-02-10T09:51:23.541Z,96.49
2019-02-10T09:53:52.636Z,97.40
2019-02-10T09:56:40.825Z,97.23
2019-02-10T09:59:09.904Z,96.72
2019-02-10T10:01:39.004Z,96.86
2019-02-10T10:04:08.111Z,97.08
2019-02-10T10:06:37.208Z,97.61
2019-02-10T10:09:07.135Z,97.95
2019-02-10T10:11:36.236Z,98.65
2019-02-10T10:14:05.326Z,98.06
2019-02-10T10:16:34.428Z,97.84
2019-02-10T10:19:03.523Z,97.92
2019-02-10T10:21:32.639Z,98.80
2019-02-10T10:24:01.743Z,99.17
2019-02-10T10:26:30.851Z,99.13
2019-02-10T10:28:59.937Z,97.98
2019-02-10T10:31:29.221Z,98.72
2019-02-10T10:33:58.460Z,99.00
2019-02-10T10:36:27.551Z,99.34
2019-02-10T10:38:56.653Z,99.16
2019-02-10T10:41:25.799Z,99.06
2019-02-10T10:43:54.910Z,99.08
2019-02-10T10:46:24.064Z,99.48
2019-02-10T10:48:53.150Z,99.62
2019-02-10T10:51:22.285Z,99.25
2019-02-10T10:53:51.386Z,99.24
2019-02-10T10:56:20.511Z,99.63
2019-02-10T10:58:49.637Z,100.00
2019-02-10T11:01:25.201Z,100.00
2019-02-10T11:03:49.588Z,100.00
2019-02-10T11:06:18.703Z,100.00
2019-02-10T11:08:47.816Z,100.00
2019-02-10T11:11:16.956Z,100.00
2019-02-10T11:13:46.043Z,100.00
2019-02-10T11:16:15.175Z,100.00
2019-02-10T11:18:44.259Z,100.00
2019-02-10T11:21:13.734Z,100.00
2019-02-10T11:23:42.852Z,100.00
2019-02-10T11:26:12.002Z,99.88
2019-02-10T11:28:41.273Z,100.00
2019-02-10T11:31:10.360Z,100.00
2019-02-10T11:33:39.472Z,100.00
2019-02-10T11:36:08.634Z,98.99
2019-02-10T11:38:37.742Z,98.93
2019-02-10T11:41:06.833Z,98.83
2019-02-10T11:43:35.943Z,99.08
2019-02-10T11:46:05.037Z,99.15
2019-02-10T11:48:34.146Z,99.42
2019-02-10T11:51:03.238Z,98.03
2019-02-10T11:53:32.333Z,98.39
2019-02-10T11:56:01.404Z,97.70
2019-02-10T11:58:30.511Z,97.74
2019-02-10T12:00:59.816Z,97.62
2019-02-10T12:03:28.941Z,97.21
2019-02-10T12:05:58.212Z,97.60
2019-02-10T12:08:35.386Z,96.83
2019-02-10T12:10:58.145Z,97.21
2019-02-10T12:13:27.359Z,97.64
2019-02-10T12:15:56.809Z,98.40
2019-02-10T12:18:25.948Z,98.93
2019-02-10T12:20:55.087Z,99.56
2019-02-10T12:23:24.377Z,100.00
2019-02-10T12:25:53.478Z,100.00
2019-02-10T12:28:22.605Z,100.00
2019-02-10T12:30:51.758Z,100.00
2019-02-10T12:33:20.925Z,100.00
2019-02-10T12:35:57.986Z,100.00
2019-02-10T12:38:20.960Z,100.00
2019-02-10T12:40:50.055Z,100.00
2019-02-10T12:43:19.181Z,100.00
2019-02-10T12:45:48.286Z,99.89
2019-02-10T12:48:17.422Z,99.08
2019-02-10T12:50:46.520Z,98.66
2019-02-10T12:53:15.649Z,98.24
2019-02-10T12:55:44.819Z,97.97
2019-02-10T12:58:13.924Z,98.10
2019-02-10T13:00:43.008Z,97.27
2019-02-10T13:03:12.118Z,96.36
2019-02-10T13:05:41.267Z,97.05
2019-02-10T13:08:10.376Z,96.87
2019-02-10T13:10:39.463Z,97.25
2019-02-10T13:13:08.545Z,98.49
2019-02-10T13:15:37.664Z,98.97
2019-02-10T13:18:06.771Z,99.54
2019-02-10T13:20:35.932Z,99.29
2019-02-10T13:23:05.014Z,99.94
2019-02-10T13:25:34.113Z,100.00
2019-02-10T13:28:03.234Z,100.00
2019-02-10T13:30:33.800Z,100.00
2019-02-10T13:33:02.990Z,100.00
2019-02-10T13:35:32.124Z,100.00
2019-02-10T13:38:01.219Z,97.73
2019-02-10T13:40:30.340Z,97.22
2019-02-10T13:42:59.436Z,97.05
2019-02-10T13:45:28.516Z,96.93
2019-02-10T13:47:57.620Z,95.68
2019-02-10T13:50:26.759Z,94.79
2019-02-10T13:52:55.866Z,94.44
2019-02-10T13:55:25.004Z,93.69
2019-02-10T13:57:54.105Z,95.19
2019-02-10T14:00:23.247Z,94.28
2019-02-10T14:02:52.354Z,94.16
2019-02-10T14:05:21.504Z,94.49
2019-02-10T14:07:51.192Z,93.00
2019-02-10T14:10:25.712Z,94.20
2019-02-10T14:12:51.237Z,94.66
2019-02-10T14:15:20.448Z,93.97
2019-02-10T14:17:49.553Z,94.19
2019-02-10T14:20:18.709Z,93.69
2019-02-10T14:22:47.814Z,95.50
2019-02-10T14:25:17.369Z,94.92
2019-02-10T14:27:46.519Z,96.25
2019-02-10T14:30:17.048Z,95.37
2019-02-10T14:32:46.308Z,94.35
2019-02-10T14:35:15.444Z,95.42
2019-02-10T14:37:44.526Z,96.10
2019-02-10T14:40:13.629Z,96.88
2019-02-10T14:42:42.712Z,94.29
2019-02-10T14:45:12.976Z,94.24
2019-02-10T14:47:42.058Z,95.01
2019-02-10T14:50:12.670Z,95.01
2019-02-10T14:52:41.762Z,94.72
2019-02-10T14:55:10.871Z,96.09
2019-02-10T14:57:39.956Z,96.63
2019-02-10T15:00:11.218Z,96.04
2019-02-10T15:02:40.310Z,96.23
2019-02-10T15:05:09.460Z,96.13
2019-02-10T15:07:38.547Z,97.22
2019-02-10T15:10:11.844Z,96.97
2019-02-10T15:12:40.793Z,96.46
2019-02-10T15:15:11.390Z,96.91
2019-02-10T15:17:40.517Z,96.08
2019-02-10T15:20:09.744Z,96.37
2019-02-10T15:22:38.825Z,97.41
2019-02-10T15:25:08.506Z,96.39
2019-02-10T15:27:37.715Z,96.32
2019-02-10T15:30:07.867Z,96.19
2019-02-10T15:32:36.969Z,95.47
2019-02-10T15:35:06.257Z,95.54
2019-02-10T15:37:35.369Z,95.86
2019-02-10T15:40:04.784Z,95.20
2019-02-10T15:42:33.891Z,95.17
2019-02-10T15:45:02.970Z,95.42
2019-02-10T15:47:32.069Z,95.58
2019-02-10T15:50:01.157Z,95.91
2019-02-10T15:52:30.258Z,95.95
2019-02-10T15:54:59.344Z,95.98
2019-02-10T15:57:28.477Z,96.10
2019-02-10T15:59:57.599Z,96.22
2019-02-10T16:02:26.719Z,96.32
2019-02-10T16:04:55.828Z,96.43
2019-02-10T16:07:24.939Z,96.77
2019-02-10T16:09:54.034Z,96.08
2019-02-10T16:12:23.140Z,95.62
2019-02-10T16:14:52.217Z,95.30
2019-02-10T16:17:21.364Z,94.76
2019-02-10T16:19:50.741Z,95.23
2019-02-10T16:22:21.487Z,93.92
2019-02-10T16:24:50.572Z,94.98
2019-02-10T16:27:19.673Z,96.19
2019-02-10T16:29:48.879Z,96.98
2019-02-10T16:32:17.974Z,98.17
2019-02-10T16:34:47.044Z,98.46
2019-02-10T16:37:16.144Z,98.21
2019-02-10T16:39:45.241Z,98.19
2019-02-10T16:42:14.346Z,98.08
2019-02-10T16:44:43.438Z,98.61
2019-02-10T16:47:12.546Z,97.96
2019-02-10T16:49:41.660Z,97.45
2019-02-10T16:52:10.782Z,98.79
2019-02-10T16:54:39.885Z,98.95
2019-02-10T16:57:08.994Z,99.86
2019-02-10T16:59:38.108Z,100.00
2019-02-10T17:02:07.221Z,98.76
2019-02-10T17:04:36.607Z,99.35
2019-02-10T17:07:05.715Z,100.00
2019-02-10T17:09:34.920Z,100.00
2019-02-10T17:12:04.041Z,99.87
2019-02-10T17:14:33.214Z,100.00
2019-02-10T17:17:02.316Z,100.00
2019-02-10T17:19:31.410Z,100.00
2019-02-10T17:22:00.620Z,100.00
2019-02-10T17:24:29.779Z,100.00
2019-02-10T17:26:58.865Z,99.30
2019-02-10T17:29:28.778Z,99.38
2019-02-10T17:31:57.887Z,99.26
2019-02-10T17:34:26.974Z,98.67
2019-02-10T17:36:56.082Z,98.70
2019-02-10T17:39:25.491Z,99.12
2019-02-10T17:41:54.622Z,99.04
2019-02-10T17:44:23.755Z,99.22
2019-02-10T17:46:52.867Z,99.16
2019-02-10T17:49:21.964Z,98.71
2019-02-10T17:51:51.075Z,98.90
2019-02-10T17:54:20.192Z,98.34
2019-02-10T17:56:49.288Z,98.48
2019-02-10T17:59:18.410Z,98.82
2019-02-10T18:01:47.649Z,98.98
2019-02-10T18:04:16.783Z,98.61
2019-02-10T18:06:45.871Z,98.63
2019-02-10T18:09:14.983Z,98.64
2019-02-10T18:11:44.050Z,98.75
2019-02-10T18:14:36.356Z,98.85
2019-02-10T18:17:22.822Z,98.58
2019-02-10T18:20:01.324Z,98.07
2019-02-10T18:22:52.538Z,97.89
2019-02-10T18:25:34.237Z,98.14
2019-02-10T18:28:20.800Z,97.29
2019-02-10T18:31:06.918Z,96.94
2019-02-10T18:33:50.605Z,96.60
2019-02-10T18:36:38.689Z,96.72
2019-02-10T18:39:25.106Z,96.71
2019-02-10T18:42:20.916Z,96.30
2019-02-10T18:44:53.253Z,96.00
2019-02-10T18:47:34.938Z,95.18
2019-02-10T18:50:13.828Z,95.28
2019-02-10T18:53:02.055Z,94.77
2019-02-10T18:55:53.232Z,95.02
2019-02-10T18:58:39.654Z,94.22
2019-02-10T19:01:26.420Z,93.76
2019-02-10T19:04:01.221Z,93.70
2019-02-10T19:06:52.356Z,93.15
2019-02-10T19:09:41.182Z,93.37
2019-02-10T19:12:32.267Z,93.77
2019-02-10T19:15:27.604Z,94.10
2019-02-10T19:18:12.249Z,93.52
2019-02-10T19:20:55.868Z,93.81
2019-02-10T19:23:39.418Z,94.16
2019-02-10T19:26:30.624Z,94.12
2019-02-10T19:29:17.367Z,94.58
2019-02-10T19:31:53.589Z,96.13
2019-02-10T19:34:40.147Z,96.30
2019-02-10T19:37:37.084Z,96.14
2019-02-10T19:40:23.953Z,97.00
2019-02-10T19:43:08.404Z,96.71
2019-02-10T19:45:49.096Z,96.60
2019-02-10T19:48:31.593Z,96.94
2019-02-10T19:51:19.679Z,98.05
2019-02-10T19:53:58.288Z,97.75
2019-02-10T19:56:55.610Z,98.33
2019-02-10T19:59:46.898Z,98.57
2019-02-10T20:02:33.748Z,99.24
2019-02-10T20:05:19.084Z,99.22
2019-02-10T20:08:00.343Z,98.61
2019-02-10T20:11:00.661Z,97.93
2019-02-10T20:13:44.872Z,97.89
2019-02-10T20:16:32.970Z,96.77
2019-02-10T20:19:16.584Z,96.62
2019-02-10T20:21:58.915Z,96.71
2019-02-10T20:24:54.178Z,96.36
2019-02-10T20:27:48.301Z,96.47
2019-02-10T20:30:34.147Z,96.56
2019-02-10T20:33:20.476Z,96.49
2019-02-10T20:35:56.713Z,96.22
2019-02-10T20:38:43.228Z,95.01
2019-02-10T20:41:27.866Z,93.73
2019-02-10T20:44:14.398Z,93.22
2019-02-10T20:46:50.472Z,92.51
2019-02-10T20:49:30.718Z,92.36
2019-02-10T20:52:30.771Z,92.36
2019-02-10T20:55:18.883Z,92.01
2019-02-10T20:58:04.336Z,92.45
2019-02-10T21:00:51.116Z,92.92
2019-02-10T21:03:42.258Z,92.92
2019-02-10T21:06:48.595Z,93.06
2019-02-10T21:09:24.132Z,93.06
2019-02-10T21:12:21.323Z,92.02
2019-02-10T21:15:21.356Z,92.44
2019-02-10T21:18:03.450Z,92.18
2019-02-10T21:20:43.270Z,92.49
2019-02-10T21:23:22.695Z,92.64
2019-02-10T21:26:09.414Z,92.17
2019-02-10T21:28:54.645Z,92.67
2019-02-10T21:31:40.962Z,90.67
2019-02-10T21:34:35.184Z,90.86
2019-02-10T21:37:29.144Z,90.82
2019-02-10T21:40:08.517Z,91.34
2019-02-10T21:42:56.632Z,91.05
2019-02-10T21:45:31.456Z,91.19
2019-02-10T21:48:05.643Z,91.52
2019-02-10T21:50:34.794Z,90.37
2019-02-10T21:53:03.960Z,91.08
2019-02-10T21:55:33.102Z,90.86
2019-02-10T21:58:03.258Z,90.33
2019-02-10T22:00:32.412Z,90.51
2019-02-10T22:03:01.571Z,90.92
2019-02-10T22:05:30.725Z,90.87
2019-02-10T22:07:59.839Z,90.62
2019-02-10T22:10:28.932Z,90.81
2019-02-10T22:12:58.094Z,90.86
2019-02-10T22:15:27.176Z,90.90
2019-02-10T22:17:56.301Z,91.27
2019-02-10T22:20:25.398Z,90.61
2019-02-10T22:22:54.520Z,90.96
2019-02-10T22:25:23.715Z,91.29
2019-02-10T22:27:52.815Z,90.00
2019-02-10T22:30:21.921Z,90.29
2019-02-10T22:32:51.019Z,90.56
2019-02-10T22:35:20.098Z,90.73
2019-02-10T22:37:49.198Z,90.67
2019-02-10T22:40:18.277Z,90.93
2019-02-10T22:42:47.354Z,90.50
2019-02-10T22:45:16.453Z,90.83
2019-02-10T22:47:45.795Z,90.90
2019-02-10T22:50:14.906Z,90.62
2019-02-10T22:52:43.988Z,90.66
2019-02-10T22:55:13.100Z,90.99
2019-02-10T22:57:42.150Z,90.95
2019-02-10T23:01:01.479Z,91.24
2019-02-10T23:03:30.588Z,91.51
2019-02-10T23:05:59.695Z,91.77
2019-02-10T23:08:28.790Z,91.91
2019-02-10T23:10:58.094Z,91.11
2019-02-10T23:13:27.178Z,91.53
2019-02-10T23:15:56.278Z,91.50
2019-02-10T23:18:25.348Z,91.71
2019-02-10T23:20:54.452Z,91.98
2019-02-10T23:23:23.531Z,91.66
2019-02-10T23:25:52.629Z,91.72
2019-02-10T23:28:21.706Z,92.54
2019-02-10T23:30:50.807Z,91.93
2019-02-10T23:33:19.892Z,91.99
2019-02-10T23:35:48.992Z,92.16
2019-02-10T23:38:18.073Z,92.61
2019-02-10T23:40:47.177Z,92.18
2019-02-10T23:43:16.254Z,92.05
2019-02-10T23:45:45.353Z,92.72
2019-02-10T23:48:14.427Z,92.93
2019-02-10T23:50:43.522Z,93.41
2019-02-10T23:53:12.597Z,93.73
2019-02-10T23:55:41.695Z,93.93
2019-02-10T23:58:10.773Z,94.36
